createdAt,value
2018-04-26T00:01:20.289Z,14.20
2018-04-26T00:03:47.796Z,14.20
2018-04-26T00:06:15.357Z,14.00
2018-04-26T00:08:42.863Z,14.00
2018-04-26T00:11:11.162Z,13.90
2018-04-26T00:13:38.683Z,13.80
2018-04-26T00:16:06.169Z,13.80
2018-04-26T00:18:34.406Z,13.50
2018-04-26T00:21:01.923Z,13.50
2018-04-26T00:23:29.463Z,13.60
2018-04-26T00:25:57.719Z,13.40
2018-04-26T00:28:25.193Z,13.40
2018-04-26T00:30:52.710Z,13.30
2018-04-26T00:33:20.207Z,13.50
2018-04-26T00:35:47.744Z,13.30
2018-04-26T00:38:15.245Z,13.30
2018-04-26T00:40:42.739Z,13.30
2018-04-26T00:43:10.249Z,13.20
2018-04-26T00:45:38.523Z,13.10
2018-04-26T00:48:06.060Z,13.00
2018-04-26T00:50:33.507Z,13.10
2018-04-26T00:53:01.026Z,13.10
2018-04-26T00:55:29.218Z,12.90
2018-04-26T00:57:56.691Z,12.80
2018-04-26T01:00:24.219Z,12.60
2018-04-26T01:02:51.801Z,12.60
2018-04-26T01:05:19.281Z,12.70
2018-04-26T01:07:47.587Z,12.70
2018-04-26T01:10:15.085Z,12.70
2018-04-26T01:12:42.677Z,12.60
2018-04-26T01:15:10.946Z,12.50
2018-04-26T01:17:38.433Z,12.50
2018-04-26T01:20:06.031Z,12.50
2018-04-26T01:22:34.268Z,12.40
2018-04-26T01:25:01.784Z,12.40
2018-04-26T01:27:29.276Z,12.40
2018-04-26T01:29:56.773Z,12.40
2018-04-26T01:32:24.381Z,12.40
2018-04-26T01:34:52.625Z,12.50
2018-04-26T01:37:31.967Z,12.50
2018-04-26T01:39:59.536Z,12.50
2018-04-26T01:42:27.078Z,12.50
2018-04-26T01:44:54.552Z,12.40
2018-04-26T01:47:22.062Z,12.40
2018-04-26T01:49:50.461Z,12.40
2018-04-26T01:52:18.062Z,12.40
2018-04-26T01:54:46.887Z,12.30
2018-04-26T01:57:14.383Z,12.30
2018-04-26T01:59:41.896Z,12.40
2018-04-26T02:02:09.373Z,12.30
2018-04-26T02:04:36.906Z,12.20
2018-04-26T02:07:04.379Z,12.20
2018-04-26T02:09:31.863Z,12.30
2018-04-26T02:11:59.369Z,12.30
2018-04-26T02:14:26.876Z,12.40
2018-04-26T02:16:54.363Z,12.40
2018-04-26T02:19:22.720Z,12.40
2018-04-26T02:21:50.199Z,12.40
2018-04-26T02:24:18.437Z,12.50
2018-04-26T02:26:45.976Z,12.50
2018-04-26T02:29:13.469Z,12.40
2018-04-26T02:31:40.981Z,12.30
2018-04-26T02:34:08.494Z,12.30
2018-04-26T02:36:35.995Z,12.20
2018-04-26T02:39:03.520Z,12.20
2018-04-26T02:41:31.819Z,12.30
2018-04-26T02:43:59.319Z,12.30
2018-04-26T02:46:26.846Z,12.30
2018-04-26T02:48:54.348Z,12.30
2018-04-26T02:51:21.843Z,12.40
2018-04-26T02:53:49.370Z,12.20
2018-04-26T02:56:17.665Z,12.30
2018-04-26T02:58:45.929Z,12.30
2018-04-26T03:01:14.195Z,12.20
2018-04-26T03:03:42.494Z,12.20
2018-04-26T03:06:11.170Z,12.10
2018-04-26T03:08:39.408Z,12.20
2018-04-26T03:11:06.947Z,12.20
2018-04-26T03:13:34.436Z,12.20
2018-04-26T03:16:01.928Z,12.20
2018-04-26T03:18:30.205Z,12.30
2018-04-26T03:20:57.705Z,12.30
2018-04-26T03:23:26.029Z,12.40
2018-04-26T03:25:54.326Z,12.30
2018-04-26T03:28:21.818Z,12.30
2018-04-26T03:30:49.306Z,12.20
2018-04-26T03:33:16.815Z,12.20
2018-04-26T03:35:44.306Z,12.10
2018-04-26T03:38:11.816Z,12.10
2018-04-26T03:40:40.199Z,12.10
2018-04-26T03:43:07.727Z,12.10
2018-04-26T03:45:35.986Z,11.80
2018-04-26T03:48:03.493Z,11.80
2018-04-26T03:50:30.978Z,11.70
2018-04-26T03:52:58.496Z,11.60
2018-04-26T03:55:26.779Z,11.50
2018-04-26T03:57:54.277Z,11.40
2018-04-26T04:00:33.670Z,11.40
2018-04-26T04:03:13.128Z,11.60
2018-04-26T04:05:52.438Z,11.60
2018-04-26T04:08:19.923Z,11.60
2018-04-26T04:10:47.435Z,11.50
2018-04-26T04:13:14.937Z,11.40
2018-04-26T04:15:42.413Z,11.40
2018-04-26T04:18:09.904Z,11.40
2018-04-26T04:20:38.173Z,11.40
2018-04-26T04:23:05.694Z,11.40
2018-04-26T04:25:33.185Z,11.50
2018-04-26T04:28:00.751Z,11.50
2018-04-26T04:30:28.226Z,11.40
2018-04-26T04:32:55.729Z,11.40
2018-04-26T04:35:23.280Z,11.50
2018-04-26T04:37:51.711Z,11.50
2018-04-26T04:40:19.966Z,11.40
2018-04-26T04:42:47.469Z,11.40
2018-04-26T04:45:15.026Z,11.40
2018-04-26T04:47:42.515Z,11.40
2018-04-26T04:50:10.101Z,11.40
2018-04-26T04:52:38.353Z,11.40
2018-04-26T04:55:05.860Z,11.30
2018-04-26T04:57:33.363Z,11.50
2018-04-26T05:00:01.066Z,11.40
2018-04-26T05:02:29.309Z,11.50
2018-04-26T05:04:56.816Z,11.40
2018-04-26T05:07:25.133Z,11.50
2018-04-26T05:09:52.605Z,11.50
2018-04-26T05:12:20.899Z,11.60
2018-04-26T05:14:48.406Z,11.60
2018-04-26T05:17:16.672Z,11.70
2018-04-26T05:19:44.322Z,11.70
2018-04-26T05:22:11.726Z,11.70
2018-04-26T05:24:39.226Z,11.70
2018-04-26T05:27:07.510Z,11.80
2018-04-26T05:29:35.019Z,11.70
2018-04-26T05:32:02.590Z,11.80
2018-04-26T05:34:30.176Z,11.80
2018-04-26T05:36:58.442Z,12.00
2018-04-26T05:39:26.792Z,12.00
2018-04-26T05:41:54.342Z,12.00
2018-04-26T05:44:21.860Z,12.00
2018-04-26T05:46:49.339Z,12.20
2018-04-26T05:49:16.867Z,12.10
2018-04-26T05:51:44.401Z,12.20
2018-04-26T05:54:12.034Z,12.20
2018-04-26T05:56:39.545Z,12.30
2018-04-26T05:59:07.072Z,12.30
2018-04-26T06:01:35.360Z,12.40
2018-04-26T06:04:03.691Z,12.50
2018-04-26T06:06:31.186Z,12.50
2018-04-26T06:08:59.489Z,12.60
2018-04-26T06:11:26.988Z,12.60
2018-04-26T06:13:54.473Z,12.70
2018-04-26T06:16:21.972Z,12.70
2018-04-26T06:18:49.530Z,12.70
2018-04-26T06:21:17.028Z,12.70
2018-04-26T06:23:44.523Z,12.80
2018-04-26T06:26:12.006Z,12.80
2018-04-26T06:28:39.527Z,13.00
2018-04-26T06:31:07.804Z,13.00
2018-04-26T06:33:36.060Z,13.00
2018-04-26T06:36:03.579Z,13.00
2018-04-26T06:38:31.047Z,13.10
2018-04-26T06:40:58.543Z,13.20
2018-04-26T06:43:26.051Z,13.40
2018-04-26T06:45:53.625Z,13.50
2018-04-26T06:48:21.145Z,13.60
2018-04-26T06:50:48.667Z,13.90
2018-04-26T06:53:16.144Z,14.10
2018-04-26T06:55:44.410Z,14.30
2018-04-26T06:58:11.960Z,14.30
2018-04-26T07:00:39.452Z,14.10
2018-04-26T07:03:07.069Z,14.40
2018-04-26T07:05:34.586Z,14.60
2018-04-26T07:08:02.077Z,14.70
2018-04-26T07:10:29.552Z,14.60
2018-04-26T07:12:57.061Z,14.60
2018-04-26T07:15:24.552Z,14.60
2018-04-26T07:17:52.053Z,14.80
2018-04-26T07:20:19.567Z,14.70
2018-04-26T07:22:47.053Z,14.30
2018-04-26T07:25:15.313Z,13.70
2018-04-26T07:27:43.573Z,13.50
2018-04-26T07:30:11.053Z,13.50
2018-04-26T07:32:38.619Z,13.20
2018-04-26T07:35:06.863Z,13.00
2018-04-26T07:37:34.337Z,13.00
2018-04-26T07:40:01.846Z,13.00
2018-04-26T07:42:29.335Z,13.10
2018-04-26T07:44:56.814Z,13.10
2018-04-26T07:47:24.353Z,13.30
2018-04-26T07:49:51.865Z,13.40
2018-04-26T07:52:20.116Z,13.70
2018-04-26T07:54:48.414Z,13.90
2018-04-26T07:57:15.908Z,13.90
2018-04-26T07:59:43.404Z,14.00
2018-04-26T08:02:11.668Z,14.40
2018-04-26T08:04:39.169Z,14.40
2018-04-26T08:07:06.689Z,14.40
2018-04-26T08:09:34.952Z,14.50
2018-04-26T08:12:02.444Z,14.50
2018-04-26T08:14:29.985Z,14.50
2018-04-26T08:16:58.245Z,14.30
2018-04-26T08:19:25.817Z,14.30
2018-04-26T08:21:54.093Z,14.30
2018-04-26T08:24:22.384Z,14.40
2018-04-26T08:26:50.646Z,14.40
2018-04-26T08:29:19.892Z,14.40
2018-04-26T08:31:47.417Z,14.30
2018-04-26T08:34:14.912Z,14.30
2018-04-26T08:36:42.406Z,14.10
2018-04-26T08:39:09.940Z,14.10
2018-04-26T08:41:37.491Z,14.00
2018-04-26T08:44:05.006Z,14.10
2018-04-26T08:46:32.673Z,14.20
2018-04-26T08:49:00.168Z,14.20
2018-04-26T08:51:27.652Z,14.40
2018-04-26T08:53:55.186Z,14.50
2018-04-26T08:56:22.690Z,14.60
2018-04-26T08:58:50.930Z,14.50
2018-04-26T09:01:18.460Z,14.50
2018-04-26T09:03:45.953Z,14.40
2018-04-26T09:06:13.527Z,14.40
2018-04-26T09:08:41.830Z,14.00
2018-04-26T09:11:09.323Z,14.00
2018-04-26T09:13:36.844Z,13.90
2018-04-26T09:16:04.387Z,13.90
2018-04-26T09:18:31.877Z,13.90
2018-04-26T09:20:59.480Z,13.90
2018-04-26T09:23:27.053Z,14.00
2018-04-26T09:25:55.319Z,14.10
2018-04-26T09:28:22.813Z,14.10
2018-04-26T09:30:50.357Z,14.20
2018-04-26T09:33:17.857Z,14.20
2018-04-26T09:35:45.343Z,14.10
2018-04-26T09:38:12.855Z,14.10
2018-04-26T09:40:40.352Z,14.20
2018-04-26T09:43:07.884Z,14.40
2018-04-26T09:45:35.472Z,14.70
2018-04-26T09:48:03.008Z,14.80
2018-04-26T09:50:30.516Z,14.70
2018-04-26T09:52:58.799Z,14.80
2018-04-26T09:55:27.159Z,14.90
2018-04-26T09:57:54.635Z,14.90
2018-04-26T10:00:27.911Z,15.00
2018-04-26T10:02:55.463Z,15.00
2018-04-26T10:05:28.677Z,15.00
2018-04-26T10:07:56.331Z,15.00
2018-04-26T10:10:24.582Z,15.20
2018-04-26T10:12:53.660Z,15.10
2018-04-26T10:15:21.187Z,15.10
2018-04-26T10:17:48.673Z,14.90
2018-04-26T10:20:16.174Z,15.00
2018-04-26T10:22:44.501Z,15.00
2018-04-26T10:25:11.990Z,15.00
2018-04-26T10:27:39.540Z,14.90
2018-04-26T10:30:07.078Z,14.90
2018-04-26T10:32:34.579Z,14.80
2018-04-26T10:35:02.908Z,15.10
2018-04-26T10:37:30.470Z,15.10
2018-04-26T10:39:57.950Z,15.40
2018-04-26T10:42:25.460Z,15.40
2018-04-26T10:44:52.967Z,15.60
2018-04-26T10:47:20.492Z,15.80
2018-04-26T10:49:48.900Z,16.00
2018-04-26T10:52:16.397Z,16.00
2018-04-26T10:54:43.901Z,16.20
2018-04-26T10:57:11.446Z,16.30
2018-04-26T10:59:38.979Z,16.30
2018-04-26T11:02:06.474Z,16.00
2018-04-26T11:04:34.047Z,15.90
2018-04-26T11:07:01.533Z,15.90
2018-04-26T11:09:29.772Z,16.30
2018-04-26T11:11:57.329Z,16.30
2018-04-26T11:14:24.820Z,16.50
2018-04-26T11:16:53.098Z,16.70
2018-04-26T11:19:21.346Z,16.30
2018-04-26T11:21:48.837Z,16.20
2018-04-26T11:24:17.220Z,16.30
2018-04-26T11:26:44.877Z,16.30
2018-04-26T11:29:13.356Z,16.70
2018-04-26T11:31:41.772Z,16.80
2018-04-26T11:34:09.263Z,16.80
2018-04-26T11:36:36.890Z,16.50
2018-04-26T11:39:04.381Z,16.50
2018-04-26T11:41:31.912Z,16.20
2018-04-26T11:43:59.429Z,16.30
2018-04-26T11:46:26.919Z,16.10
2018-04-26T11:48:54.410Z,16.20
2018-04-26T11:51:22.732Z,15.90
2018-04-26T11:53:50.349Z,15.90
2018-04-26T11:56:18.892Z,15.90
2018-04-26T11:58:46.737Z,15.90
2018-04-26T12:01:15.063Z,15.90
2018-04-26T12:03:42.603Z,15.90
2018-04-26T12:06:10.170Z,15.80
2018-04-26T12:08:37.713Z,15.70
2018-04-26T12:11:05.204Z,15.70
2018-04-26T12:13:32.893Z,15.70
2018-04-26T12:16:01.207Z,15.90
2018-04-26T12:18:29.012Z,15.90
2018-04-26T12:20:56.474Z,16.20
2018-04-26T12:23:24.250Z,16.60
2018-04-26T12:25:52.512Z,16.80
2018-04-26T12:28:20.102Z,16.80
2018-04-26T12:30:47.701Z,16.50
2018-04-26T12:33:15.192Z,16.40
2018-04-26T12:35:43.466Z,16.40
2018-04-26T12:38:11.725Z,16.40
2018-04-26T12:40:39.506Z,16.30
2018-04-26T12:43:07.808Z,16.20
2018-04-26T12:45:35.388Z,16.20
2018-04-26T12:48:03.105Z,16.30
2018-04-26T12:50:30.619Z,16.50
2018-04-26T12:52:58.114Z,16.70
2018-04-26T12:55:26.165Z,17.00
2018-04-26T12:57:53.776Z,17.30
2018-04-26T13:00:21.302Z,17.50
2018-04-26T13:02:49.574Z,17.90
2018-04-26T13:05:17.362Z,17.90
2018-04-26T13:07:44.984Z,18.10
2018-04-26T13:10:12.646Z,18.20
2018-04-26T13:12:40.171Z,18.20
2018-04-26T13:15:07.907Z,18.10
2018-04-26T13:17:36.186Z,17.50
2018-04-26T13:20:04.501Z,17.40
2018-04-26T13:22:31.993Z,17.40
2018-04-26T13:24:59.896Z,17.00
2018-04-26T13:27:27.482Z,17.10
2018-04-26T13:29:55.030Z,17.00
2018-04-26T13:32:22.592Z,17.10
2018-04-26T13:34:50.164Z,17.20
2018-04-26T13:37:17.702Z,17.40
2018-04-26T13:39:45.272Z,17.40
2018-04-26T13:42:12.753Z,17.30
2018-04-26T13:44:40.361Z,17.10
2018-04-26T13:47:08.732Z,17.20
2018-04-26T13:49:36.546Z,17.20
2018-04-26T13:52:04.145Z,17.30
2018-04-26T13:54:31.659Z,17.20
2018-04-26T13:56:59.377Z,17.20
2018-04-26T13:59:26.905Z,17.30
2018-04-26T14:01:54.447Z,17.20
2018-04-26T14:04:22.020Z,17.00
2018-04-26T14:06:49.506Z,17.10
2018-04-26T14:09:17.128Z,17.10
2018-04-26T14:11:44.692Z,16.80
2018-04-26T14:14:13.385Z,16.70
2018-04-26T14:16:40.940Z,16.60
2018-04-26T14:19:08.475Z,16.70
2018-04-26T14:21:36.191Z,16.90
2018-04-26T14:24:03.806Z,17.00
2018-04-26T14:26:31.307Z,16.90
2018-04-26T14:28:59.863Z,16.80
2018-04-26T14:31:27.535Z,16.70
2018-04-26T14:33:55.506Z,17.00
2018-04-26T14:36:23.800Z,17.10
2018-04-26T14:38:51.287Z,17.10
2018-04-26T14:41:18.877Z,17.10
2018-04-26T14:43:46.411Z,16.90
2018-04-26T14:46:13.982Z,16.80
2018-04-26T14:48:42.254Z,17.10
2018-04-26T14:51:09.885Z,17.00
2018-04-26T14:53:37.456Z,17.30
2018-04-26T14:56:05.126Z,17.90
2018-04-26T14:58:32.720Z,18.40
2018-04-26T15:01:00.229Z,18.50
2018-04-26T15:03:27.729Z,18.60
2018-04-26T15:05:55.289Z,18.60
2018-04-26T15:08:22.820Z,18.30
2018-04-26T15:10:51.346Z,18.20
2018-04-26T15:13:19.686Z,18.20
2018-04-26T15:15:47.489Z,18.20
2018-04-26T15:18:15.746Z,18.10
2018-04-26T15:20:43.261Z,18.00
2018-04-26T15:23:10.765Z,18.00
2018-04-26T15:25:39.502Z,17.90
2018-04-26T15:28:07.069Z,17.90
2018-04-26T15:30:34.567Z,17.80
2018-04-26T15:33:02.151Z,17.80
2018-04-26T15:35:29.809Z,17.80
2018-04-26T15:37:58.238Z,17.80
2018-04-26T15:40:25.733Z,17.80
2018-04-26T15:42:53.853Z,17.80
2018-04-26T15:45:21.518Z,17.80
2018-04-26T15:47:49.050Z,17.70
2018-04-26T15:50:42.545Z,17.70
2018-04-26T15:53:21.975Z,17.70
2018-04-26T15:56:01.306Z,17.60
2018-04-26T16:02:19.388Z,17.50
2018-04-26T16:04:58.718Z,17.60
2018-04-26T16:07:54.493Z,17.50
2018-04-26T16:10:40.581Z,17.30
2018-04-26T16:13:26.573Z,17.40
2018-04-26T16:16:12.592Z,17.30
2018-04-26T16:18:51.951Z,17.30
2018-04-26T16:21:35.476Z,17.20
2018-04-26T16:27:29.456Z,16.60
2018-04-26T16:30:08.873Z,16.50
2018-04-26T16:32:48.957Z,16.30
2018-04-26T16:35:28.253Z,16.30
2018-04-26T16:38:13.610Z,16.20
2018-04-26T16:40:42.030Z,16.00
2018-04-26T16:43:09.678Z,16.00
2018-04-26T16:45:37.688Z,15.80
2018-04-26T16:48:06.081Z,15.70
2018-04-26T16:50:33.720Z,15.70
2018-04-26T16:53:01.358Z,15.80
2018-04-26T16:55:28.862Z,15.70
2018-04-26T16:57:56.384Z,15.50
2018-04-26T17:00:23.984Z,15.40
2018-04-26T17:02:51.528Z,15.30
2018-04-26T17:05:19.843Z,15.20
2018-04-26T17:07:48.298Z,15.10
2018-04-26T17:10:16.699Z,15.00
2018-04-26T17:12:45.099Z,14.90
2018-04-26T17:15:12.615Z,14.90
2018-04-26T17:17:40.275Z,14.80
2018-04-26T17:20:07.966Z,14.90
2018-04-26T17:22:36.243Z,14.80
2018-04-26T17:25:04.268Z,14.80
2018-04-26T17:27:31.780Z,14.80
2018-04-26T17:29:59.914Z,14.70
2018-04-26T17:32:28.171Z,14.60
2018-04-26T17:34:55.796Z,14.60
2018-04-26T17:37:23.347Z,14.60
2018-04-26T17:39:50.928Z,14.60
2018-04-26T17:42:18.545Z,14.50
2018-04-26T17:44:45.980Z,14.40
2018-04-26T17:47:13.488Z,14.30
2018-04-26T17:49:41.013Z,14.30
2018-04-26T17:52:08.512Z,14.30
2018-04-26T17:54:37.035Z,14.20
2018-04-26T17:57:04.551Z,14.00
2018-04-26T17:59:32.058Z,13.90
2018-04-26T18:01:59.599Z,13.90
2018-04-26T18:04:27.079Z,13.80
2018-04-26T18:06:54.573Z,13.80
2018-04-26T18:09:22.209Z,13.60
2018-04-26T18:11:50.456Z,13.50
2018-04-26T18:14:17.927Z,13.50
2018-04-26T18:16:45.447Z,13.30
2018-04-26T18:19:12.934Z,13.30
2018-04-26T18:21:40.492Z,13.10
2018-04-26T18:24:08.122Z,13.00
2018-04-26T18:26:35.603Z,13.00
2018-04-26T18:29:03.081Z,12.80
2018-04-26T18:31:30.597Z,12.70
2018-04-26T18:33:58.414Z,12.70
2018-04-26T18:36:26.694Z,12.60
2018-04-26T18:38:54.974Z,12.50
2018-04-26T18:41:22.486Z,12.50
2018-04-26T18:43:49.972Z,12.40
2018-04-26T18:46:18.307Z,12.30
2018-04-26T18:48:45.858Z,12.30
2018-04-26T18:51:13.377Z,12.30
2018-04-26T18:53:40.942Z,12.30
2018-04-26T18:56:08.471Z,12.30
2018-04-26T18:58:35.985Z,12.30
2018-04-26T19:01:03.487Z,12.20
2018-04-26T19:03:31.001Z,12.10
2018-04-26T19:05:58.540Z,12.00
2018-04-26T19:08:26.121Z,11.90
2018-04-26T19:10:54.368Z,11.80
2018-04-26T19:13:21.868Z,11.80
2018-04-26T19:15:49.502Z,11.80
2018-04-26T19:18:16.972Z,11.70
2018-04-26T19:20:44.731Z,11.60
2018-04-26T19:23:12.529Z,11.60
2018-04-26T19:25:40.081Z,11.70
2018-04-26T19:28:07.646Z,11.50
2018-04-26T19:30:36.067Z,11.40
2018-04-26T19:33:03.850Z,11.30
2018-04-26T19:35:31.653Z,11.30
2018-04-26T19:38:00.000Z,11.30
2018-04-26T19:40:28.108Z,11.30
2018-04-26T19:42:56.040Z,11.30
2018-04-26T19:45:23.697Z,11.20
2018-04-26T19:47:51.348Z,11.20
2018-04-26T19:50:19.117Z,11.30
2018-04-26T19:52:46.703Z,11.20
2018-04-26T19:55:15.018Z,11.20
2018-04-26T19:57:43.747Z,11.20
2018-04-26T20:00:11.292Z,11.10
2018-04-26T20:02:38.925Z,11.20
2018-04-26T20:05:07.557Z,11.10
2018-04-26T20:07:35.222Z,11.10
2018-04-26T20:10:02.863Z,11.00
2018-04-26T20:12:30.374Z,11.10
2018-04-26T20:14:57.903Z,11.10
2018-04-26T20:17:25.459Z,11.10
2018-04-26T20:19:53.150Z,11.20
2018-04-26T20:22:20.693Z,11.10
2018-04-26T20:24:48.234Z,11.20
2018-04-26T20:27:15.857Z,11.10
2018-04-26T20:29:43.415Z,11.00
2018-04-26T20:32:10.918Z,11.00
2018-04-26T20:34:39.220Z,11.00
2018-04-26T20:37:06.786Z,11.00
2018-04-26T20:39:35.051Z,10.80
2018-04-26T20:42:03.408Z,10.90
2018-04-26T20:44:42.703Z,10.80
2018-04-26T20:47:16.998Z,10.80
2018-04-26T20:49:45.273Z,10.80
2018-04-26T20:52:13.561Z,10.70
2018-04-26T20:54:41.073Z,10.70
2018-04-26T20:57:11.978Z,10.70
2018-04-26T20:59:42.864Z,10.60
2018-04-26T21:02:11.260Z,10.50
2018-04-26T21:04:39.569Z,10.60
2018-04-26T21:07:07.104Z,10.60
2018-04-26T21:09:34.665Z,10.60
2018-04-26T21:12:02.191Z,10.70
2018-04-26T21:14:29.713Z,10.60
2018-04-26T21:16:57.302Z,10.50
2018-04-26T21:19:24.865Z,10.50
2018-04-26T21:21:52.396Z,10.60
2018-04-26T21:24:19.990Z,10.50
2018-04-26T21:26:48.374Z,10.60
2018-04-26T21:29:16.711Z,10.60
2018-04-26T21:31:44.343Z,10.60
2018-04-26T21:34:11.887Z,10.60
2018-04-26T21:36:39.425Z,10.50
2018-04-26T21:39:06.990Z,10.50
2018-04-26T21:41:35.281Z,10.50
2018-04-26T21:44:02.786Z,10.50
2018-04-26T21:46:30.336Z,10.50
2018-04-26T21:48:57.869Z,10.40
2018-04-26T21:51:31.141Z,10.40
2018-04-26T21:54:05.152Z,10.30
2018-04-26T21:56:39.217Z,10.30
2018-04-26T21:59:12.377Z,10.30
2018-04-26T22:01:45.598Z,10.40
2018-04-26T22:04:13.211Z,10.40
2018-04-26T22:06:40.739Z,10.30
2018-04-26T22:09:09.047Z,10.10
2018-04-26T22:11:36.591Z,10.10
2018-04-26T22:14:04.878Z,10.00
2018-04-26T22:16:32.472Z,10.00
2018-04-26T22:19:00.055Z,10.10
2018-04-26T22:21:27.559Z,10.00
2018-04-26T22:23:55.101Z,10.00
2018-04-26T22:26:23.450Z,9.90
2018-04-26T22:28:50.992Z,9.90
2018-04-26T22:31:18.553Z,9.90
2018-04-26T22:33:46.084Z,9.80
2018-04-26T22:36:13.617Z,9.70
2018-04-26T22:38:41.917Z,9.60
2018-04-26T22:41:09.694Z,9.60
2018-04-26T22:43:37.209Z,9.60
2018-04-26T22:46:05.507Z,9.40
2018-04-26T22:48:33.057Z,9.40
2018-04-26T22:51:00.579Z,9.40
2018-04-26T22:53:28.882Z,9.20
2018-04-26T22:55:57.207Z,9.20
2018-04-26T22:58:24.734Z,9.10
2018-04-26T23:00:52.265Z,9.10
2018-04-26T23:03:20.590Z,8.90
2018-04-26T23:05:48.116Z,8.90
2018-04-26T23:08:15.688Z,8.80
2018-04-26T23:10:43.257Z,8.90
2018-04-26T23:13:10.790Z,8.80
2018-04-26T23:15:39.086Z,8.80
2018-04-26T23:18:06.733Z,8.70
2018-04-26T23:20:34.252Z,8.80
2018-04-26T23:23:01.781Z,8.70
2018-04-26T23:25:29.332Z,8.70
2018-04-26T23:27:56.845Z,8.80
2018-04-26T23:30:25.137Z,8.80
2018-04-26T23:32:52.725Z,8.80
2018-04-26T23:35:20.234Z,8.70
2018-04-26T23:37:48.634Z,8.80
2018-04-26T23:40:16.187Z,8.80
2018-04-26T23:42:44.468Z,8.70
2018-04-26T23:45:11.983Z,8.70
2018-04-26T23:47:39.523Z,8.80
2018-04-26T23:50:07.047Z,8.80
2018-04-26T23:52:34.590Z,8.80
2018-04-26T23:55:02.916Z,8.70
2018-04-26T23:57:30.447Z,8.70
2018-04-26T23:59:58.036Z,8.70
